Time;durP1;ratioP1;P1;durP2;ratioP2;P2;SDS_P1;SDS_P2;PMS_P1;PMS_P2;Temp;Humidity;BMP_temperature;BMP_pressure;BME280_temperature;BME280_humidity;BME280_pressure;Samples;Min_cycle;Max_cycle;Signal;HPM_P1;HPM_P2
2023/09/16 00:02:24;;;;;;;20.00;18.50;;;12.80;99.90;;;;;;4740031;30;20290;-50
2023/09/16 00:04:51;;;;;;;18.87;17.53;;;12.80;99.90;;;;;;4730832;30;20180;-43
2023/09/16 00:07:17;;;;;;;19.17;17.77;;;12.90;99.90;;;;;;4729734;30;20193;-43
2023/09/16 00:09:43;;;;;;;17.00;15.90;;;12.80;99.90;;;;;;4730927;30;20438;-46
2023/09/16 00:12:09;;;;;;;18.50;17.20;;;12.80;99.90;;;;;;4731287;30;20536;-43
2023/09/16 00:14:34;;;;;;;17.80;16.70;;;12.80;99.90;;;;;;4742277;30;20560;-45
2023/09/16 00:17:02;;;;;;;17.10;16.00;;;12.80;99.90;;;;;;4746859;30;20997;-44
2023/09/16 00:19:28;;;;;;;18.47;17.10;;;12.70;99.90;;;;;;4747218;30;20192;-47
2023/09/16 00:21:55;;;;;;;17.70;16.40;;;12.70;99.90;;;;;;4736314;30;20461;-42
2023/09/16 00:24:21;;;;;;;18.07;16.67;;;12.70;99.90;;;;;;4738332;30;20747;-47
2023/09/16 00:26:46;;;;;;;17.13;15.70;;;12.70;99.90;;;;;;4748102;30;20438;-44
2023/09/16 00:29:12;;;;;;;17.80;16.20;;;12.70;99.90;;;;;;4745870;30;20267;-45
2023/09/16 00:31:38;;;;;;;17.53;16.30;;;12.70;99.90;;;;;;4745252;30;20200;-42
2023/09/16 00:34:03;;;;;;;17.57;16.37;;;12.70;99.90;;;;;;4738154;30;20565;-42
2023/09/16 00:36:29;;;;;;;18.93;17.33;;;12.60;99.90;;;;;;4746062;30;20363;-44
2023/09/16 00:38:55;;;;;;;17.37;16.17;;;12.60;99.90;;;;;;4745922;30;20200;-44
2023/09/16 00:41:21;;;;;;;18.33;16.97;;;12.60;99.90;;;;;;4747392;30;20205;-44
2023/09/16 00:43:46;;;;;;;17.53;16.23;;;12.60;99.90;;;;;;4746260;30;20803;-44
2023/09/16 00:46:12;;;;;;;17.43;16.03;;;12.60;99.90;;;;;;4745498;30;20735;-45
2023/09/16 00:48:39;;;;;;;17.70;16.50;;;12.50;99.90;;;;;;4744620;30;20605;-44
2023/09/16 00:51:06;;;;;;;17.53;16.23;;;12.50;99.90;;;;;;4747547;30;20200;-42
2023/09/16 00:53:32;;;;;;;17.80;16.43;;;12.40;99.90;;;;;;4746769;30;20463;-41
2023/09/16 00:55:59;;;;;;;17.30;16.10;;;12.40;99.90;;;;;;4756311;30;20478;-48
2023/09/16 00:58:24;;;;;;;17.83;16.60;;;12.40;99.90;;;;;;4748311;30;20434;-44
2023/09/16 01:00:50;;;;;;;17.63;16.33;;;12.40;99.90;;;;;;4747244;30;20829;-42
2023/09/16 01:03:16;;;;;;;16.70;15.60;;;12.40;99.90;;;;;;4745782;30;20193;-43
2023/09/16 01:05:46;;;;;;;17.87;16.57;;;12.40;99.90;;;;;;4747288;30;20458;-47
2023/09/16 01:08:12;;;;;;;18.03;16.73;;;12.40;99.90;;;;;;4746202;30;20445;-48
2023/09/16 01:10:40;;;;;;;18.23;16.90;;;12.40;99.90;;;;;;4745253;30;20454;-45
2023/09/16 01:13:06;;;;;;;17.80;16.50;;;12.40;99.90;;;;;;4743449;30;20204;-48
2023/09/16 01:15:38;;;;;;;18.57;17.17;;;12.40;99.90;;;;;;4746389;30;20572;-48
2023/09/16 01:18:32;;;;;;;18.83;17.27;;;12.30;99.90;;;;;;4747288;30;20792;-44
2023/09/16 01:20:59;;;;;;;17.70;16.37;;;12.30;99.90;;;;;;4745916;30;20489;-43
2023/09/16 01:23:24;;;;;;;18.80;17.40;;;12.30;99.90;;;;;;4747186;30;20449;-45
2023/09/16 01:25:50;;;;;;;17.90;16.60;;;12.30;99.90;;;;;;4747234;30;20961;-44
2023/09/16 01:28:16;;;;;;;17.40;16.00;;;12.30;99.90;;;;;;4747314;30;20211;-42
2023/09/16 01:30:47;;;;;;;17.50;16.10;;;12.30;99.90;;;;;;4747332;30;20200;-47
2023/09/16 01:33:21;;;;;;;17.83;16.53;;;12.30;99.90;;;;;;4748857;30;20197;-49
2023/09/16 01:35:51;;;;;;;17.03;15.77;;;12.30;99.90;;;;;;4747718;30;20474;-44
2023/09/16 01:38:21;;;;;;;17.70;16.40;;;12.30;99.90;;;;;;4749032;30;20517;-44
2023/09/16 01:40:50;;;;;;;17.50;16.20;;;12.20;99.90;;;;;;4750683;30;20465;-48
2023/09/16 01:43:15;;;;;;;17.50;16.30;;;12.30;99.90;;;;;;4750302;30;20485;-47
2023/09/16 01:45:42;;;;;;;17.63;16.23;;;12.30;99.90;;;;;;4749685;30;20482;-45
2023/09/16 01:48:08;;;;;;;17.10;15.80;;;12.30;99.90;;;;;;4749628;30;20229;-44
2023/09/16 01:50:35;;;;;;;17.50;16.13;;;12.30;99.90;;;;;;4749257;30;20493;-43
2023/09/16 01:53:01;;;;;;;17.67;16.27;;;12.30;99.90;;;;;;4749668;30;20192;-45
2023/09/16 01:55:27;;;;;;;16.83;15.73;;;12.30;99.90;;;;;;4752079;30;20474;-45
2023/09/16 01:57:53;;;;;;;18.03;16.63;;;12.30;99.90;;;;;;4749430;30;20779;-45
2023/09/16 02:00:18;;;;;;;17.10;15.80;;;12.30;99.90;;;;;;4747390;30;20881;-44
2023/09/16 02:02:44;;;;;;;16.87;15.50;;;12.20;99.90;;;;;;4749677;30;20201;-46
2023/09/16 02:05:10;;;;;;;17.50;16.10;;;12.30;99.90;;;;;;4750218;30;20200;-45
2023/09/16 02:07:36;;;;;;;18.60;16.93;;;12.30;99.90;;;;;;4750284;30;20676;-45
2023/09/16 02:10:03;;;;;;;17.50;16.10;;;12.30;99.90;;;;;;4749721;30;20804;-46
2023/09/16 02:12:28;;;;;;;18.07;16.77;;;12.30;99.90;;;;;;4749560;30;20276;-45
2023/09/16 02:14:54;;;;;;;16.97;15.63;;;12.40;99.90;;;;;;4750207;30;21013;-48
2023/09/16 02:17:20;;;;;;;17.73;16.40;;;12.40;99.90;;;;;;4749255;30;20730;-44
2023/09/16 02:19:46;;;;;;;17.93;16.53;;;12.40;99.90;;;;;;4750118;30;20199;-46
2023/09/16 02:22:11;;;;;;;18.27;16.73;;;12.40;99.90;;;;;;4743988;30;20450;-44
2023/09/16 02:24:37;;;;;;;18.03;16.63;;;12.40;99.90;;;;;;4750139;30;20529;-44
2023/09/16 02:27:04;;;;;;;18.00;16.60;;;12.40;99.90;;;;;;4750038;30;20197;-46
2023/09/16 02:29:32;;;;;;;16.80;15.50;;;12.40;99.90;;;;;;4750379;30;20225;-47
2023/09/16 02:31:57;;;;;;;18.13;16.73;;;12.30;99.90;;;;;;4748470;30;20442;-45
2023/09/16 02:34:23;;;;;;;18.23;16.70;;;12.30;99.90;;;;;;4749863;30;20451;-45
2023/09/16 02:36:49;;;;;;;17.43;16.00;;;12.30;99.90;;;;;;4762940;30;20235;-49
2023/09/16 02:39:14;;;;;;;17.87;16.27;;;12.30;99.90;;;;;;4749723;30;20595;-43
2023/09/16 02:41:40;;;;;;;18.07;16.70;;;12.30;99.90;;;;;;4748289;30;20228;-44
2023/09/16 02:44:07;;;;;;;18.07;16.63;;;12.30;99.90;;;;;;4749514;30;20641;-45
2023/09/16 02:46:32;;;;;;;17.77;16.27;;;12.30;99.90;;;;;;4749342;30;20672;-48
2023/09/16 02:48:58;;;;;;;17.20;15.80;;;12.30;99.90;;;;;;4749490;30;20457;-46
2023/09/16 02:51:23;;;;;;;18.13;16.73;;;12.30;99.90;;;;;;4748368;30;20199;-45
2023/09/16 02:53:49;;;;;;;17.20;15.90;;;12.30;99.90;;;;;;4749468;30;20720;-45
2023/09/16 02:56:15;;;;;;;18.50;16.97;;;12.30;99.90;;;;;;4752419;30;20228;-44
2023/09/16 02:58:40;;;;;;;17.17;15.87;;;12.30;99.90;;;;;;4749430;30;20196;-43
2023/09/16 03:01:10;;;;;;;18.20;16.80;;;12.30;99.90;;;;;;4749336;30;20629;-43
2023/09/16 03:03:36;;;;;;;16.33;15.13;;;12.30;99.90;;;;;;4748151;30;20217;-45
2023/09/16 03:06:02;;;;;;;17.60;16.10;;;12.30;99.90;;;;;;4747329;30;20447;-42
2023/09/16 03:08:28;;;;;;;17.47;16.00;;;12.30;99.90;;;;;;4741603;30;20813;-45
2023/09/16 03:10:59;;;;;;;18.80;16.20;;;12.30;99.90;;;;;;4744710;30;20232;-46
2023/09/16 03:13:25;;;;;;;17.70;16.30;;;12.30;99.90;;;;;;4749289;30;20193;-43
2023/09/16 03:16:19;;;;;;;17.30;15.90;;;12.30;99.90;;;;;;4748903;30;20486;-48
2023/09/16 03:18:49;;;;;;;17.97;16.57;;;12.30;99.90;;;;;;4747238;30;20279;-43
2023/09/16 03:21:16;;;;;;;18.60;16.90;;;12.30;99.90;;;;;;4749026;30;20447;-48
2023/09/16 03:23:43;;;;;;;17.13;15.83;;;12.30;99.90;;;;;;4749225;30;20832;-48
2023/09/16 03:26:10;;;;;;;17.87;16.47;;;12.30;99.90;;;;;;4749280;30;20447;-46
2023/09/16 03:28:39;;;;;;;18.90;17.00;;;12.30;99.90;;;;;;4749671;30;20443;-50
2023/09/16 03:31:05;;;;;;;17.27;15.80;;;12.30;99.90;;;;;;4749034;30;20934;-44
2023/09/16 03:33:31;;;;;;;18.07;16.50;;;12.30;99.90;;;;;;4743109;30;20450;-45
2023/09/16 03:35:57;;;;;;;17.33;15.83;;;12.40;99.90;;;;;;4735934;30;20229;-45
2023/09/16 03:38:25;;;;;;;18.27;16.87;;;12.40;99.90;;;;;;4748636;30;20870;-44
2023/09/16 03:40:51;;;;;;;18.00;16.70;;;12.40;99.90;;;;;;4749155;30;20621;-44
2023/09/16 03:43:17;;;;;;;18.13;16.70;;;12.40;99.90;;;;;;4748653;30;20427;-45
2023/09/16 03:45:43;;;;;;;19.00;17.40;;;12.40;99.90;;;;;;4747047;30;20383;-45
2023/09/16 03:48:09;;;;;;;17.47;16.17;;;12.30;99.90;;;;;;4748031;30;20549;-48
2023/09/16 03:50:35;;;;;;;18.30;16.77;;;12.30;99.90;;;;;;4748633;30;20272;-46
2023/09/16 03:53:01;;;;;;;18.13;16.60;;;12.30;99.90;;;;;;4746630;30;20533;-46
2023/09/16 03:55:26;;;;;;;17.57;16.17;;;12.30;99.90;;;;;;4744689;30;20224;-43
2023/09/16 03:57:52;;;;;;;17.93;16.53;;;12.30;99.90;;;;;;4748175;30;20189;-45
2023/09/16 04:00:17;;;;;;;18.40;16.93;;;12.30;99.90;;;;;;4747378;30;20195;-43
2023/09/16 04:02:43;;;;;;;18.57;17.17;;;12.20;99.90;;;;;;4748204;30;20196;-43
2023/09/16 04:05:09;;;;;;;19.03;17.33;;;12.30;99.90;;;;;;4747110;30;20192;-48
2023/09/16 04:07:35;;;;;;;17.60;16.10;;;12.20;99.90;;;;;;4748101;30;20287;-46
2023/09/16 04:10:01;;;;;;;17.67;16.20;;;12.30;99.90;;;;;;4747424;30;21021;-46
2023/09/16 04:12:27;;;;;;;18.53;17.00;;;12.30;99.90;;;;;;4748373;30;20708;-44
2023/09/16 04:14:53;;;;;;;18.10;16.70;;;12.20;99.90;;;;;;4744962;30;20588;-46
2023/09/16 04:17:19;;;;;;;17.93;16.43;;;12.30;99.90;;;;;;4745161;30;20490;-43
2023/09/16 04:19:44;;;;;;;18.27;16.77;;;12.30;99.90;;;;;;4747635;30;20196;-44
2023/09/16 04:22:10;;;;;;;18.33;16.70;;;12.30;99.90;;;;;;4748210;30;20995;-44
2023/09/16 04:24:36;;;;;;;17.80;16.40;;;12.20;99.90;;;;;;4747288;30;20834;-47
2023/09/16 04:27:01;;;;;;;18.37;16.87;;;12.20;99.90;;;;;;4748128;30;20602;-43
2023/09/16 04:29:27;;;;;;;16.33;15.03;;;12.20;99.90;;;;;;4747997;30;20192;-45
2023/09/16 04:31:53;;;;;;;19.47;17.67;;;12.20;99.90;;;;;;4748243;30;20196;-45
2023/09/16 04:34:19;;;;;;;18.83;17.13;;;12.20;99.90;;;;;;4747892;30;20742;-42
2023/09/16 04:36:45;;;;;;;18.43;17.03;;;12.10;99.90;;;;;;4748133;30;20236;-51
2023/09/16 04:39:10;;;;;;;18.20;16.70;;;12.10;99.90;;;;;;4746655;30;20549;-44
2023/09/16 04:41:36;;;;;;;17.67;16.17;;;12.10;99.90;;;;;;4748049;30;20254;-47
2023/09/16 04:44:02;;;;;;;18.80;16.90;;;12.10;99.90;;;;;;4747790;30;20641;-47
2023/09/16 04:46:29;;;;;;;17.53;16.20;;;12.00;99.90;;;;;;4746743;30;20193;-45
2023/09/16 04:48:55;;;;;;;18.47;16.97;;;12.00;99.90;;;;;;4742133;30;20537;-46
2023/09/16 04:51:20;;;;;;;17.43;16.00;;;12.00;99.90;;;;;;4747514;30;20442;-47
2023/09/16 04:53:49;;;;;;;18.47;16.97;;;12.00;99.90;;;;;;4747825;30;20193;-44
2023/09/16 04:56:15;;;;;;;17.63;16.30;;;12.10;99.90;;;;;;4750598;30;20684;-45
2023/09/16 04:58:41;;;;;;;17.50;16.10;;;12.10;99.90;;;;;;4746656;30;20438;-49
2023/09/16 05:01:07;;;;;;;17.03;15.83;;;12.10;99.90;;;;;;4746408;30;20813;-44
2023/09/16 05:03:33;;;;;;;17.50;16.00;;;12.10;99.90;;;;;;4747708;30;20278;-43
2023/09/16 05:05:59;;;;;;;17.33;16.00;;;12.00;99.90;;;;;;4748254;30;20496;-47
2023/09/16 05:08:24;;;;;;;17.00;15.50;;;12.00;99.90;;;;;;4751092;30;20200;-45
2023/09/16 05:10:54;;;;;;;17.33;16.03;;;12.00;99.90;;;;;;4746872;30;20484;-45
2023/09/16 05:13:20;;;;;;;16.77;15.47;;;12.00;99.90;;;;;;4750120;30;20234;-46
2023/09/16 05:15:50;;;;;;;18.60;17.00;;;12.00;99.90;;;;;;4750209;30;20501;-47
2023/09/16 05:18:16;;;;;;;17.00;15.70;;;12.00;99.90;;;;;;4750526;30;20185;-47
2023/09/16 05:20:41;;;;;;;17.93;16.23;;;12.10;99.90;;;;;;4750190;30;20415;-45
2023/09/16 05:23:07;;;;;;;17.73;16.40;;;12.10;99.90;;;;;;4751299;30;20453;-44
2023/09/16 05:25:33;;;;;;;17.50;16.00;;;12.10;99.90;;;;;;4750460;30;20208;-47
2023/09/16 05:27:59;;;;;;;17.47;16.13;;;12.10;99.90;;;;;;4751371;30;20200;-43
2023/09/16 05:30:24;;;;;;;18.10;16.60;;;12.20;99.90;;;;;;4750011;30;20184;-43
2023/09/16 05:32:50;;;;;;;16.47;15.27;;;12.20;99.90;;;;;;4742165;30;20216;-43
2023/09/16 05:35:15;;;;;;;17.63;16.23;;;12.20;99.90;;;;;;4748159;30;20680;-45
2023/09/16 05:37:41;;;;;;;17.50;16.10;;;12.30;99.90;;;;;;4749336;30;20216;-43
2023/09/16 05:40:07;;;;;;;17.97;16.47;;;12.30;99.90;;;;;;4745807;30;20321;-44
2023/09/16 05:42:33;;;;;;;18.70;17.20;;;12.40;99.90;;;;;;4750955;30;20691;-46
2023/09/16 05:45:03;;;;;;;19.00;17.40;;;12.50;99.90;;;;;;4750061;30;20426;-44
2023/09/16 05:47:32;;;;;;;17.43;16.13;;;12.50;99.90;;;;;;4750588;30;20272;-44
2023/09/16 05:49:58;;;;;;;17.63;16.23;;;12.60;99.90;;;;;;4748094;30;20942;-44
2023/09/16 05:52:23;;;;;;;17.63;16.13;;;12.70;99.90;;;;;;4739132;30;20458;-43
2023/09/16 05:54:49;;;;;;;18.20;16.73;;;12.70;99.90;;;;;;4751095;30;20207;-46
2023/09/16 05:57:14;;;;;;;18.23;16.73;;;12.80;99.90;;;;;;4750274;30;20212;-44
2023/09/16 05:59:40;;;;;;;17.40;16.07;;;12.90;99.90;;;;;;4748456;30;20185;-44
2023/09/16 06:02:06;;;;;;;17.03;15.73;;;13.00;99.90;;;;;;4749740;30;20204;-43
2023/09/16 06:04:31;;;;;;;19.00;17.43;;;13.00;99.90;;;;;;4745462;30;20193;-42
2023/09/16 06:06:57;;;;;;;18.43;17.00;;;13.10;99.90;;;;;;4749558;30;20258;-56
2023/09/16 06:09:22;;;;;;;17.97;16.53;;;13.20;99.90;;;;;;4748081;30;20189;-56
2023/09/16 06:11:48;;;;;;;18.23;16.83;;;13.30;99.90;;;;;;4751088;30;20307;-51
2023/09/16 06:14:14;;;;;;;18.43;16.93;;;13.40;99.90;;;;;;4748582;30;20196;-56
2023/09/16 06:16:39;;;;;;;18.60;17.20;;;13.50;99.90;;;;;;4750466;30;20280;-55
2023/09/16 06:19:05;;;;;;;17.60;16.30;;;13.60;99.90;;;;;;4749166;30;21002;-56
2023/09/16 06:21:31;;;;;;;17.80;16.50;;;13.70;99.90;;;;;;4749813;30;20191;-53
2023/09/16 06:23:57;;;;;;;18.50;17.20;;;13.80;99.90;;;;;;4750173;30;20193;-52
2023/09/16 06:26:23;;;;;;;17.13;16.03;;;13.90;99.90;;;;;;4749626;30;20262;-54
2023/09/16 06:28:49;;;;;;;17.80;16.40;;;14.00;99.90;;;;;;4750315;30;20458;-55
2023/09/16 06:31:14;;;;;;;17.53;16.23;;;14.10;99.90;;;;;;4745670;30;20708;-54
2023/09/16 06:33:40;;;;;;;18.17;16.87;;;14.20;99.90;;;;;;4734262;30;20199;-55
2023/09/16 06:36:06;;;;;;;16.93;15.83;;;14.30;99.90;;;;;;4743636;30;20224;-56
2023/09/16 06:38:31;;;;;;;16.80;15.70;;;14.40;99.90;;;;;;4750812;30;20923;-57
2023/09/16 06:40:57;;;;;;;16.50;15.40;;;14.50;99.90;;;;;;4749581;30;20224;-55
2023/09/16 06:43:23;;;;;;;16.70;15.40;;;14.60;99.90;;;;;;4749506;30;20196;-55
2023/09/16 06:45:49;;;;;;;16.53;15.43;;;14.70;99.90;;;;;;4750158;30;20280;-56
2023/09/16 06:48:15;;;;;;;16.40;15.30;;;14.80;99.90;;;;;;4748607;30;20537;-51
2023/09/16 06:50:41;;;;;;;16.90;15.70;;;14.90;99.90;;;;;;4746932;30;20459;-52
2023/09/16 06:53:07;;;;;;;16.20;15.20;;;15.00;99.90;;;;;;4747601;30;20500;-54
2023/09/16 06:55:33;;;;;;;15.33;14.33;;;15.10;99.90;;;;;;4748716;30;21033;-56
2023/09/16 06:57:59;;;;;;;16.70;15.60;;;15.20;99.90;;;;;;4750499;30;21049;-52
2023/09/16 07:00:24;;;;;;;15.77;14.77;;;15.30;99.90;;;;;;4749886;30;20973;-57
2023/09/16 07:02:52;;;;;;;14.70;13.80;;;15.50;99.90;;;;;;4749647;30;20427;-52
2023/09/16 07:05:17;;;;;;;14.90;13.90;;;15.50;99.90;;;;;;4762103;30;20189;-55
2023/09/16 07:07:43;;;;;;;14.57;13.67;;;15.70;99.90;;;;;;4750416;30;20423;-49
2023/09/16 07:10:09;;;;;;;15.47;14.47;;;15.80;99.90;;;;;;4749413;30;20242;-48
2023/09/16 07:12:34;;;;;;;15.07;14.17;;;16.00;99.90;;;;;;4748876;30;20293;-53
2023/09/16 07:15:00;;;;;;;14.57;13.70;;;16.10;99.90;;;;;;4748960;30;20196;-52
2023/09/16 07:17:25;;;;;;;15.20;14.30;;;16.20;99.90;;;;;;4748699;30;20240;-50
2023/09/16 07:19:51;;;;;;;15.70;14.80;;;16.30;99.90;;;;;;4748688;30;20180;-53
2023/09/16 07:22:18;;;;;;;14.30;13.50;;;16.50;99.90;;;;;;4748783;30;20181;-54
2023/09/16 07:24:44;;;;;;;15.23;14.40;;;16.50;99.90;;;;;;4747717;30;20280;-50
2023/09/16 07:27:09;;;;;;;14.97;14.07;;;16.70;99.90;;;;;;4748839;30;20928;-55
2023/09/16 07:29:35;;;;;;;13.87;13.10;;;16.80;99.90;;;;;;4749150;30;20500;-53
2023/09/16 07:32:01;;;;;;;14.73;13.83;;;16.90;99.90;;;;;;4749487;30;20271;-51
2023/09/16 07:34:26;;;;;;;14.70;13.90;;;17.10;99.90;;;;;;4748951;30;20188;-52
2023/09/16 07:36:52;;;;;;;14.57;13.60;;;17.20;99.90;;;;;;4748219;30;20209;-54
2023/09/16 07:39:18;;;;;;;14.53;13.70;;;17.30;99.90;;;;;;4749188;30;20207;-56
2023/09/16 07:41:44;;;;;;;14.63;13.83;;;17.50;99.90;;;;;;4750045;30;20443;-52
2023/09/16 07:44:09;;;;;;;14.47;13.47;;;17.60;99.90;;;;;;4748767;30;20197;-54
2023/09/16 07:46:35;;;;;;;13.93;13.07;;;17.70;99.90;;;;;;4748649;30;20232;-52
2023/09/16 07:49:01;;;;;;;14.30;13.50;;;17.90;99.90;;;;;;4748368;30;20189;-54
2023/09/16 07:51:27;;;;;;;13.30;12.60;;;18.10;99.90;;;;;;4748639;30;20745;-49
2023/09/16 07:53:52;;;;;;;14.43;13.63;;;18.30;99.90;;;;;;4748535;30;20431;-54
2023/09/16 07:56:20;;;;;;;14.27;13.40;;;18.30;99.90;;;;;;4769656;30;20745;-50
2023/09/16 07:58:45;;;;;;;13.87;13.07;;;18.50;99.90;;;;;;4748295;30;20192;-55
2023/09/16 08:01:11;;;;;;;14.60;13.70;;;18.60;99.90;;;;;;4748517;30;20497;-54
2023/09/16 08:03:37;;;;;;;15.07;14.20;;;18.80;99.90;;;;;;4761870;30;20246;-53
2023/09/16 08:06:04;;;;;;;14.27;13.57;;;18.90;99.90;;;;;;4748427;30;20258;-56
2023/09/16 08:08:29;;;;;;;13.97;13.17;;;19.00;99.90;;;;;;4748649;30;21010;-56
2023/09/16 08:10:55;;;;;;;13.80;13.10;;;19.10;99.90;;;;;;4748244;30;20521;-57
2023/09/16 08:13:21;;;;;;;14.33;13.50;;;19.30;99.90;;;;;;4747624;30;20209;-53
2023/09/16 08:15:46;;;;;;;14.73;13.83;;;19.60;99.90;;;;;;4748014;30;20297;-54
2023/09/16 08:18:12;;;;;;;14.40;13.60;;;19.90;99.90;;;;;;4748198;30;20201;-55
2023/09/16 08:20:38;;;;;;;14.97;14.17;;;20.20;99.90;;;;;;4748442;30;20204;-55
2023/09/16 08:23:04;;;;;;;13.70;13.00;;;20.60;99.90;;;;;;4748145;30;20705;-48
2023/09/16 08:25:30;;;;;;;13.43;12.70;;;20.90;99.90;;;;;;4748101;30;20192;-51
2023/09/16 08:27:55;;;;;;;14.10;13.30;;;21.30;99.90;;;;;;4748364;30;21009;-53
2023/09/16 08:30:21;;;;;;;13.37;12.70;;;21.70;99.90;;;;;;4748300;30;20253;-56
2023/09/16 08:32:47;;;;;;;13.57;12.87;;;22.00;97.50;;;;;;4748035;30;20193;-56
2023/09/16 08:35:13;;;;;;;14.47;13.63;;;22.50;96.30;;;;;;4747940;30;20287;-53
2023/09/16 08:37:38;;;;;;;13.63;12.93;;;23.10;95.80;;;;;;4747580;30;20510;-51
2023/09/16 08:40:05;;;;;;;14.33;13.63;;;23.80;93.10;;;;;;4748602;30;20197;-55
2023/09/16 08:42:45;;;;;;;13.37;12.70;;;24.50;88.10;;;;;;4751630;30;20201;-53
2023/09/16 08:45:21;;;;;;;13.60;12.90;;;24.80;83.30;;;;;;4765423;30;20446;-53
2023/09/16 08:47:55;;;;;;;14.10;13.40;;;24.80;79.50;;;;;;4748300;30;20533;-44
2023/09/16 08:50:22;;;;;;;13.63;12.93;;;24.50;78.30;;;;;;4744229;30;20427;-45
2023/09/16 08:52:53;;;;;;;13.87;13.17;;;24.40;81.70;;;;;;4743964;30;20443;-49
2023/09/16 08:55:20;;;;;;;13.10;12.50;;;24.50;82.10;;;;;;4743933;30;20430;-44
2023/09/16 08:58:04;;;;;;;13.47;12.80;;;24.40;82.00;;;;;;4743976;30;20438;-45
2023/09/16 09:00:30;;;;;;;14.20;13.50;;;24.50;79.50;;;;;;4743965;30;20433;-50
2023/09/16 09:02:56;;;;;;;14.00;13.30;;;24.30;78.40;;;;;;4743015;30;20447;-47
2023/09/16 09:05:23;;;;;;;14.03;13.23;;;24.10;79.40;;;;;;4743807;30;20228;-48
2023/09/16 09:07:49;;;;;;;13.77;13.07;;;24.10;82.40;;;;;;4743929;30;20197;-48
2023/09/16 09:10:15;;;;;;;14.27;13.57;;;24.10;80.80;;;;;;4743743;30;21680;-46
2023/09/16 09:12:42;;;;;;;13.33;12.73;;;24.00;81.90;;;;;;4729543;30;20624;-47
2023/09/16 09:15:15;;;;;;;14.30;13.50;;;24.00;80.80;;;;;;4739419;30;20291;-44
2023/09/16 09:17:44;;;;;;;14.37;13.57;;;24.10;81.10;;;;;;4706868;30;20460;-48
2023/09/16 09:20:15;;;;;;;14.30;13.60;;;24.30;83.70;;;;;;4708247;30;20464;-45
2023/09/16 09:22:41;;;;;;;13.87;13.17;;;24.40;81.50;;;;;;4707750;30;21113;-46
2023/09/16 09:25:07;;;;;;;13.93;13.23;;;24.50;79.20;;;;;;4708074;30;20444;-44
2023/09/16 09:27:33;;;;;;;13.80;13.10;;;24.50;78.80;;;;;;4707023;30;20539;-46
2023/09/16 09:29:59;;;;;;;14.67;13.87;;;24.60;78.30;;;;;;4707892;30;20505;-45
2023/09/16 09:32:32;;;;;;;14.83;14.03;;;24.70;81.80;;;;;;4720837;30;20301;-47
2023/09/16 09:35:04;;;;;;;14.03;13.33;;;24.90;77.50;;;;;;4707990;30;20225;-45
2023/09/16 09:37:29;;;;;;;13.90;13.20;;;25.00;76.20;;;;;;4706809;30;20484;-45
2023/09/16 09:40:12;;;;;;;13.80;13.10;;;25.10;76.50;;;;;;4705378;30;20452;-45
2023/09/16 09:42:43;;;;;;;13.50;12.80;;;25.30;74.70;;;;;;4700542;30;21057;-44
2023/09/16 09:45:10;;;;;;;13.73;13.03;;;25.40;78.10;;;;;;4715505;30;20453;-47
2023/09/16 09:47:40;;;;;;;13.93;13.23;;;25.60;73.90;;;;;;4706477;30;20459;-44
2023/09/16 09:50:07;;;;;;;13.60;12.90;;;25.90;69.90;;;;;;4707139;30;20451;-43
2023/09/16 09:52:34;;;;;;;14.50;13.70;;;25.90;70.90;;;;;;4703418;30;20444;-46
2023/09/16 09:55:01;;;;;;;14.10;13.30;;;25.90;68.00;;;;;;4704492;30;20836;-45
2023/09/16 09:57:30;;;;;;;13.43;12.73;;;25.90;68.30;;;;;;4705427;30;21189;-45
2023/09/16 09:59:56;;;;;;;14.50;13.80;;;26.10;70.10;;;;;;4706625;30;20440;-46
2023/09/16 10:02:27;;;;;;;15.00;14.10;;;26.30;68.90;;;;;;4707113;30;20424;-47
2023/09/16 10:05:03;;;;;;;14.47;13.70;;;26.40;64.90;;;;;;4706800;30;20440;-44
2023/09/16 10:07:28;;;;;;;13.87;13.07;;;26.60;62.60;;;;;;4707592;30;20535;-48
2023/09/16 10:09:55;;;;;;;13.70;13.00;;;26.50;62.70;;;;;;4706952;30;21161;-49
2023/09/16 10:12:21;;;;;;;13.23;12.60;;;26.50;62.20;;;;;;4706988;30;20482;-47
2023/09/16 10:14:48;;;;;;;14.20;13.50;;;26.60;61.20;;;;;;4708038;30;20444;-48
2023/09/16 10:17:15;;;;;;;14.57;13.77;;;26.60;62.00;;;;;;4735152;30;20505;-52
2023/09/16 10:19:42;;;;;;;14.10;13.30;;;26.70;61.60;;;;;;4741945;30;20797;-48
2023/09/16 10:22:08;;;;;;;14.03;13.23;;;26.90;61.90;;;;;;4742180;30;20540;-51
2023/09/16 10:24:35;;;;;;;14.17;13.47;;;27.10;62.30;;;;;;4741337;30;20553;-50
2023/09/16 10:27:13;;;;;;;13.90;13.20;;;27.30;61.70;;;;;;4742553;30;20316;-45
2023/09/16 10:29:40;;;;;;;13.83;13.13;;;27.30;58.10;;;;;;4742149;30;20450;-47
2023/09/16 10:32:06;;;;;;;12.90;12.30;;;27.30;56.50;;;;;;4742381;30;20462;-46
2023/09/16 10:34:32;;;;;;;13.53;12.83;;;27.40;57.90;;;;;;4741856;30;20502;-47
2023/09/16 10:36:58;;;;;;;13.80;13.10;;;27.50;56.10;;;;;;4742157;30;20585;-45
2023/09/16 10:39:25;;;;;;;13.37;12.67;;;27.40;54.90;;;;;;4736416;30;20463;-46
2023/09/16 10:41:52;;;;;;;14.03;13.33;;;27.40;55.40;;;;;;4739885;30;21011;-45
2023/09/16 10:44:18;;;;;;;14.17;13.47;;;27.10;55.40;;;;;;4753466;30;20553;-47
2023/09/16 10:46:45;;;;;;;14.00;13.30;;;26.80;55.50;;;;;;4740109;30;20426;-47
2023/09/16 10:49:11;;;;;;;14.07;13.37;;;27.00;56.30;;;;;;4741951;30;20652;-46
2023/09/16 10:51:42;;;;;;;13.60;12.90;;;27.00;54.90;;;;;;4753193;30;20456;-48
2023/09/16 10:55:02;;;;;;;13.87;13.17;;;27.20;56.50;;;;;;4741282;30;20197;-46
2023/09/16 10:57:36;;;;;;;14.00;13.30;;;27.30;54.90;;;;;;4732250;30;20529;-48
2023/09/16 11:00:03;;;;;;;13.87;13.27;;;27.30;55.10;;;;;;4741694;30;20466;-44
2023/09/16 11:02:40;;;;;;;13.43;12.77;;;27.30;52.90;;;;;;4741088;30;20438;-47
2023/09/16 11:05:06;;;;;;;13.63;12.93;;;27.50;53.10;;;;;;4740626;30;20601;-48
2023/09/16 11:07:32;;;;;;;13.83;13.03;;;27.60;52.70;;;;;;4740412;30;20454;-46
2023/09/16 11:09:58;;;;;;;13.93;13.23;;;27.80;52.40;;;;;;4740325;30;20205;-44
2023/09/16 11:12:25;;;;;;;12.43;11.83;;;27.90;50.90;;;;;;4739992;30;21289;-47
2023/09/16 11:14:51;;;;;;;13.20;12.50;;;28.10;52.20;;;;;;4741473;30;20780;-45
2023/09/16 11:17:17;;;;;;;13.13;12.47;;;28.00;51.20;;;;;;4740516;30;20517;-44
2023/09/16 11:19:42;;;;;;;13.57;12.87;;;28.10;51.20;;;;;;4739826;30;20197;-44
2023/09/16 11:22:09;;;;;;;13.80;13.13;;;28.40;50.40;;;;;;4740252;30;20435;-45
2023/09/16 11:24:36;;;;;;;13.73;13.00;;;28.70;51.10;;;;;;4740922;30;20791;-46
2023/09/16 11:27:02;;;;;;;13.00;12.30;;;29.10;48.60;;;;;;4739752;30;20490;-46
2023/09/16 11:29:29;;;;;;;14.20;13.50;;;29.10;47.30;;;;;;4740957;30;20530;-45
2023/09/16 11:31:55;;;;;;;13.07;12.47;;;29.20;47.00;;;;;;4740781;30;20489;-44
2023/09/16 11:34:25;;;;;;;13.93;13.23;;;29.20;46.40;;;;;;4740705;30;20464;-45
2023/09/16 11:36:55;;;;;;;13.43;12.83;;;29.40;46.30;;;;;;4741089;30;20481;-46
2023/09/16 11:39:42;;;;;;;13.17;12.57;;;29.20;46.10;;;;;;4740907;30;20764;-47
2023/09/16 11:42:08;;;;;;;14.27;13.57;;;29.10;46.60;;;;;;4739594;30;20843;-43
2023/09/16 11:44:37;;;;;;;14.07;13.27;;;28.80;46.00;;;;;;4741149;30;20450;-47
2023/09/16 11:47:04;;;;;;;14.13;13.43;;;28.60;46.20;;;;;;4740786;30;20787;-44
2023/09/16 11:49:34;;;;;;;12.80;12.20;;;28.60;46.20;;;;;;4740910;30;20443;-50
2023/09/16 11:52:00;;;;;;;13.57;12.87;;;28.60;46.70;;;;;;4739498;30;20451;-48
2023/09/16 11:54:26;;;;;;;14.10;13.30;;;28.50;47.20;;;;;;4740777;30;20435;-46
2023/09/16 11:56:53;;;;;;;13.97;13.27;;;28.50;46.20;;;;;;4740887;30;20561;-48
2023/09/16 11:59:19;;;;;;;13.83;13.13;;;28.50;46.70;;;;;;4740137;30;20201;-43
2023/09/16 12:01:45;;;;;;;14.03;13.33;;;28.60;47.20;;;;;;4740619;30;20454;-47
2023/09/16 12:04:15;;;;;;;13.07;12.47;;;28.80;47.00;;;;;;4740342;30;20224;-44
2023/09/16 12:06:41;;;;;;;13.83;13.13;;;28.90;46.50;;;;;;4738642;30;20520;-44
2023/09/16 12:09:09;;;;;;;13.63;12.93;;;28.90;45.20;;;;;;4739875;30;20438;-50
2023/09/16 12:11:37;;;;;;;13.47;12.80;;;28.70;44.60;;;;;;4740237;30;21379;-49
2023/09/16 12:14:04;;;;;;;13.47;12.83;;;28.80;45.50;;;;;;4740651;30;20442;-48
2023/09/16 12:16:30;;;;;;;14.40;13.53;;;28.70;44.00;;;;;;4739764;30;21100;-46
2023/09/16 12:18:56;;;;;;;13.83;13.20;;;28.80;44.50;;;;;;4740118;30;20450;-44
2023/09/16 12:21:22;;;;;;;12.70;12.10;;;28.80;44.10;;;;;;4740409;30;20446;-44
2023/09/16 12:23:51;;;;;;;13.17;12.57;;;28.80;43.90;;;;;;4740271;30;20200;-46
2023/09/16 12:26:17;;;;;;;12.83;12.23;;;28.50;44.10;;;;;;4740512;30;21010;-45
2023/09/16 12:28:42;;;;;;;13.83;13.13;;;28.40;44.30;;;;;;4740615;30;20493;-46